createdAt,value
2023-09-27T00:03:57.600Z,0.60
2023-09-27T00:09:01.908Z,0.60
2023-09-27T00:14:05.579Z,0.53
2023-09-27T00:19:11.447Z,0.50
2023-09-27T00:24:15.067Z,0.70
2023-09-27T00:29:19.093Z,0.60
2023-09-27T00:34:24.722Z,0.70
2023-09-27T00:39:28.275Z,0.70
2023-09-27T00:44:31.926Z,0.70
2023-09-27T00:49:37.164Z,0.60
2023-09-27T00:54:41.856Z,0.70
2023-09-27T00:59:45.973Z,0.57
2023-09-27T01:04:50.980Z,0.60
2023-09-27T01:09:55.002Z,0.60
2023-09-27T01:14:58.639Z,0.50
2023-09-27T01:20:05.636Z,0.60
2023-09-27T01:25:17.212Z,0.70
2023-09-27T01:30:20.966Z,0.70
2023-09-27T01:35:24.701Z,0.60
2023-09-27T01:40:31.801Z,0.50
2023-09-27T01:45:36.122Z,0.50
2023-09-27T01:50:39.847Z,0.53
2023-09-27T01:55:44.928Z,0.60
2023-09-27T02:00:48.575Z,0.80
2023-09-27T02:05:53.702Z,0.60
2023-09-27T02:10:59.791Z,0.70
2023-09-27T02:16:03.617Z,0.70
2023-09-27T02:21:07.840Z,0.50
2023-09-27T02:26:13.968Z,0.90
2023-09-27T02:31:18.800Z,0.60
2023-09-27T02:36:22.402Z,0.80
2023-09-27T02:41:27.431Z,0.63
2023-09-27T02:46:31.270Z,0.70
2023-09-27T02:51:34.878Z,0.70
2023-09-27T02:56:39.862Z,0.60
2023-09-27T03:01:44.329Z,0.70
2023-09-27T03:06:50.061Z,0.77
2023-09-27T03:11:55.435Z,1.00
2023-09-27T03:16:59.084Z,1.07
2023-09-27T03:22:02.849Z,0.90
2023-09-27T03:27:09.817Z,0.83
2023-09-27T03:32:14.108Z,0.70
2023-09-27T03:37:17.720Z,0.90
2023-09-27T03:42:22.993Z,0.80
2023-09-27T03:47:26.595Z,0.80
2023-09-27T03:52:30.312Z,0.77
2023-09-27T03:57:35.301Z,1.03
2023-09-27T04:02:38.943Z,1.00
2023-09-27T04:07:42.948Z,0.70
2023-09-27T04:12:48.427Z,0.80
2023-09-27T04:17:52.029Z,0.70
2023-09-27T04:22:55.767Z,0.90
2023-09-27T04:28:00.779Z,0.67
2023-09-27T04:33:04.734Z,0.60
2023-09-27T04:38:08.513Z,0.70
2023-09-27T04:43:13.503Z,0.70
2023-09-27T04:48:17.410Z,0.80
2023-09-27T04:53:21.082Z,0.70
2023-09-27T04:58:26.012Z,0.70
2023-09-27T05:03:29.740Z,0.80
2023-09-27T05:08:33.552Z,0.70
2023-09-27T05:13:38.530Z,0.60
2023-09-27T05:18:42.677Z,0.80
2023-09-27T05:23:46.296Z,0.70
2023-09-27T05:28:51.421Z,0.80
2023-09-27T05:33:55.144Z,0.90
2023-09-27T05:38:58.733Z,0.60
2023-09-27T05:44:04.442Z,0.70
2023-09-27T05:49:10.269Z,0.97
2023-09-27T05:54:13.968Z,0.70
2023-09-27T05:59:19.210Z,0.80
2023-09-27T06:04:22.919Z,0.90
2023-09-27T06:09:26.737Z,0.90
2023-09-27T06:14:31.722Z,1.10
2023-09-27T06:19:36.196Z,0.90
2023-09-27T06:24:39.774Z,1.10
2023-09-27T06:29:44.766Z,1.00
2023-09-27T06:34:48.451Z,0.80
2023-09-27T06:39:52.036Z,0.60
2023-09-27T06:44:56.976Z,0.70
2023-09-27T06:50:00.595Z,0.80
2023-09-27T06:55:05.341Z,0.70
2023-09-27T07:00:14.159Z,0.80
2023-09-27T07:05:20.334Z,0.80
2023-09-27T07:10:26.548Z,0.80
2023-09-27T07:15:33.233Z,0.80
2023-09-27T07:20:37.950Z,0.70
2023-09-27T07:25:41.728Z,0.70
2023-09-27T07:30:47.173Z,1.23
2023-09-27T07:35:53.207Z,1.40
2023-09-27T07:40:56.784Z,1.30
2023-09-27T07:46:07.899Z,1.10
2023-09-27T07:51:13.156Z,1.00
2023-09-27T07:56:21.160Z,0.80
2023-09-27T08:01:26.638Z,0.70
2023-09-27T08:06:30.273Z,0.63
2023-09-27T08:11:33.944Z,0.80
2023-09-27T08:16:38.923Z,0.80
2023-09-27T08:21:42.506Z,1.00
2023-09-27T08:26:47.271Z,0.80
2023-09-27T08:31:52.416Z,1.00
2023-09-27T08:36:56.094Z,0.80
2023-09-27T08:42:00.971Z,1.07
2023-09-27T08:47:06.966Z,1.00
2023-09-27T08:52:12.037Z,1.20
2023-09-27T08:57:16.396Z,1.33
2023-09-27T09:02:25.075Z,1.60
2023-09-27T09:07:28.733Z,1.50
2023-09-27T09:12:34.477Z,1.40
2023-09-27T09:17:43.806Z,1.60
2023-09-27T09:22:47.669Z,1.40
2023-09-27T09:28:05.029Z,1.23
2023-09-27T09:33:18.213Z,1.60
2023-09-27T09:38:27.091Z,1.30
2023-09-27T09:43:32.433Z,1.20
2023-09-27T09:48:39.396Z,1.10
2023-09-27T09:53:43.975Z,1.07
2023-09-27T09:58:54.746Z,1.10
2023-09-27T10:04:05.202Z,1.00
2023-09-27T10:09:15.228Z,1.20
2023-09-27T10:14:20.426Z,1.60
2023-09-27T10:19:29.491Z,1.07
2023-09-27T10:24:35.948Z,1.40
2023-09-27T10:29:57.975Z,1.20
2023-09-27T10:35:17.857Z,1.20
2023-09-27T10:40:22.973Z,1.07
2023-09-27T10:45:26.658Z,1.60
2023-09-27T10:50:32.451Z,1.30
2023-09-27T10:55:41.073Z,0.97
2023-09-27T11:00:57.422Z,1.30
2023-09-27T11:06:10.923Z,1.10
2023-09-27T11:11:14.600Z,1.43
2023-09-27T11:16:19.524Z,1.10
2023-09-27T11:21:27.096Z,1.10
2023-09-27T11:26:32.977Z,1.30
2023-09-27T11:31:38.298Z,0.97
2023-09-27T11:36:44.353Z,1.30
2023-09-27T11:41:48.132Z,1.00
2023-09-27T11:46:52.900Z,1.00
2023-09-27T11:52:00.872Z,0.80
2023-09-27T11:57:05.048Z,1.07
2023-09-27T12:02:16.816Z,0.83
2023-09-27T12:07:30.430Z,1.00
2023-09-27T12:12:34.740Z,1.10
2023-09-27T12:17:38.833Z,1.10
2023-09-27T12:22:45.205Z,0.90
2023-09-27T12:27:48.771Z,0.90
2023-09-27T12:32:52.526Z,1.00
2023-09-27T12:37:57.698Z,1.00
2023-09-27T12:43:01.356Z,1.20
2023-09-27T12:48:05.671Z,1.00
2023-09-27T12:53:10.915Z,0.87
2023-09-27T12:58:15.170Z,0.87
2023-09-27T13:03:18.930Z,0.90
2023-09-27T13:08:24.837Z,0.90
2023-09-27T13:13:30.121Z,0.80
2023-09-27T13:18:34.043Z,1.10
2023-09-27T13:23:42.342Z,1.00
2023-09-27T13:28:47.303Z,0.90
2023-09-27T13:33:59.448Z,0.80
2023-09-27T13:39:18.081Z,0.90
2023-09-27T13:44:22.442Z,0.90
2023-09-27T13:49:26.079Z,0.87
2023-09-27T13:54:31.203Z,0.80
2023-09-27T13:59:35.285Z,0.90
2023-09-27T14:04:38.927Z,0.90
2023-09-27T14:09:44.049Z,0.97
2023-09-27T14:14:47.743Z,0.90
2023-09-27T14:19:51.483Z,0.80
2023-09-27T14:24:56.787Z,0.83
2023-09-27T14:30:00.652Z,0.70
2023-09-27T14:35:04.691Z,1.00
2023-09-27T14:40:11.165Z,0.90
2023-09-27T14:45:30.773Z,0.87
2023-09-27T14:50:35.780Z,0.90
2023-09-27T14:55:40.938Z,0.80
2023-09-27T15:00:44.610Z,0.90
2023-09-27T15:05:48.200Z,0.90
2023-09-27T15:10:53.301Z,0.90
2023-09-27T15:15:57.043Z,0.63
2023-09-27T15:21:00.823Z,0.70
2023-09-27T15:26:06.224Z,0.80
2023-09-27T15:31:10.907Z,0.73
2023-09-27T15:36:14.564Z,0.70
2023-09-27T15:41:20.744Z,0.87
2023-09-27T15:46:24.494Z,0.60
2023-09-27T15:51:28.300Z,0.70
2023-09-27T15:56:34.318Z,0.80
2023-09-27T16:01:38.149Z,0.70
2023-09-27T16:06:41.861Z,0.70
2023-09-27T16:11:46.825Z,0.80
2023-09-27T16:16:50.668Z,0.53
2023-09-27T16:21:54.327Z,0.60
2023-09-27T16:27:01.238Z,0.90
2023-09-27T16:32:05.416Z,0.73
2023-09-27T16:37:10.055Z,0.70
2023-09-27T16:42:15.030Z,0.53
2023-09-27T16:47:18.714Z,0.70
2023-09-27T16:52:23.145Z,0.50
2023-09-27T16:57:28.889Z,0.60
2023-09-27T17:02:32.671Z,0.80
2023-09-27T17:07:38.853Z,0.70
2023-09-27T17:12:43.915Z,0.70
2023-09-27T17:17:47.794Z,0.80
2023-09-27T17:22:51.465Z,0.80
2023-09-27T17:27:56.554Z,0.90
2023-09-27T17:33:00.479Z,1.00
2023-09-27T17:38:06.585Z,1.10
2023-09-27T17:43:11.725Z,0.90
2023-09-27T17:48:15.330Z,0.80
2023-09-27T17:53:19.024Z,0.60
2023-09-27T17:58:24.016Z,0.70
2023-09-27T18:03:27.668Z,0.83
2023-09-27T18:08:31.315Z,0.80
2023-09-27T18:13:36.461Z,0.67
2023-09-27T18:18:40.086Z,0.80
2023-09-27T18:23:44.895Z,0.80
2023-09-27T18:28:50.019Z,0.60
2023-09-27T18:33:53.949Z,0.60
2023-09-27T18:38:57.745Z,0.70
2023-09-27T18:44:04.151Z,0.60
2023-09-27T18:49:08.921Z,0.60
2023-09-27T18:54:12.543Z,0.70
2023-09-27T18:59:17.943Z,0.70
2023-09-27T19:04:21.605Z,0.60
2023-09-27T19:09:25.300Z,0.60
2023-09-27T19:14:30.382Z,0.70
2023-09-27T19:19:34.057Z,0.73
2023-09-27T19:24:39.040Z,0.60
2023-09-27T19:29:45.328Z,0.60
2023-09-27T19:34:48.990Z,0.70
2023-09-27T19:39:53.906Z,0.63
2023-09-27T19:44:58.951Z,0.90
2023-09-27T19:50:03.400Z,0.83
2023-09-27T19:55:08.525Z,0.80
2023-09-27T20:00:18.972Z,0.80
2023-09-27T20:05:26.715Z,0.60
2023-09-27T20:10:30.642Z,0.80
2023-09-27T20:15:36.614Z,0.80
2023-09-27T20:20:40.242Z,0.70
2023-09-27T20:25:44.238Z,0.83
2023-09-27T20:30:50.751Z,1.07
2023-09-27T20:35:55.011Z,1.00
2023-09-27T20:40:58.780Z,0.90
2023-09-27T20:46:03.817Z,0.90
2023-09-27T20:51:08.836Z,1.10
2023-09-27T20:56:12.461Z,0.90
2023-09-27T21:01:28.491Z,1.00
2023-09-27T21:06:32.596Z,1.00
2023-09-27T21:11:36.176Z,0.90
2023-09-27T21:16:41.157Z,0.80
2023-09-27T21:21:44.844Z,0.80
2023-09-27T21:26:48.455Z,0.83
2023-09-27T21:31:53.530Z,1.07
2023-09-27T21:36:57.198Z,1.00
2023-09-27T21:42:00.806Z,0.80
2023-09-27T21:47:06.168Z,0.80
2023-09-27T21:52:09.805Z,0.73
2023-09-27T21:57:15.928Z,0.90
2023-09-27T22:02:20.988Z,1.00
2023-09-27T22:07:24.552Z,1.60
2023-09-27T22:12:29.323Z,1.43
2023-09-27T22:17:36.743Z,1.10
2023-09-27T22:22:41.657Z,0.93
2023-09-27T22:27:46.661Z,1.10
2023-09-27T22:32:51.589Z,1.10
2023-09-27T22:37:56.977Z,1.10
2023-09-27T22:43:00.944Z,1.00
2023-09-27T22:48:06.550Z,1.10
2023-09-27T22:53:10.821Z,1.10
2023-09-27T22:58:14.444Z,1.10
2023-09-27T23:03:19.980Z,0.90
2023-09-27T23:08:27.850Z,1.30
2023-09-27T23:13:37.336Z,1.00
2023-09-27T23:18:42.370Z,1.00
2023-09-27T23:23:57.240Z,1.20
2023-09-27T23:29:27.979Z,0.90
2023-09-27T23:34:35.671Z,0.90
2023-09-27T23:39:45.796Z,1.10
2023-09-27T23:44:51.210Z,0.90
2023-09-27T23:49:58.106Z,1.00
2023-09-27T23:55:04.178Z,0.73
